Time;durP1;ratioP1;P1;durP2;ratioP2;P2;SDS_P1;SDS_P2;PMS_P1;PMS_P2;Temp;Humidity;BMP_temperature;BMP_pressure;BME280_temperature;BME280_humidity;BME280_pressure;Samples;Min_cycle;Max_cycle;Signal;HPM_P1;HPM_P2
2023/10/05 00:03:38;;;;;;;15.60;9.23;;;;;;;11.18;100.00;100369.78;5008224;28;20480;-87
2023/10/05 00:06:14;;;;;;;17.70;9.18;;;;;;;11.14;100.00;100362.97;5053592;28;20036;-87
2023/10/05 00:08:47;;;;;;;16.73;8.75;;;;;;;10.77;100.00;100304.38;5035363;28;20435;-87
2023/10/05 00:11:24;;;;;;;13.07;8.35;;;;;;;11.04;100.00;100353.78;5035363;28;20467;-87
2023/10/05 00:13:56;;;;;;;13.43;7.53;;;;;;;11.08;100.00;100361.47;5010961;28;20038;-87
2023/10/05 00:16:22;;;;;;;14.48;8.25;;;;;;;11.05;100.00;100355.50;4993774;28;20513;-87
2023/10/05 00:18:51;;;;;;;14.20;8.32;;;;;;;11.11;100.00;100373.50;4994559;28;20065;-87
2023/10/05 00:21:20;;;;;;;11.57;7.22;;;;;;;11.10;100.00;100364.00;4994414;28;20022;-88
2023/10/05 00:24:00;;;;;;;13.02;7.53;;;;;;;11.06;100.00;100359.81;5010919;28;20041;-87
2023/10/05 00:26:28;;;;;;;11.73;6.53;;;;;;;11.06;100.00;100355.44;4994543;28;20033;-87
2023/10/05 00:31:39;;;;;;;14.13;7.20;;;;;;;10.81;100.00;100342.47;4933378;29;20095;-87
2023/10/05 00:34:15;;;;;;;13.60;7.30;;;;;;;10.91;100.00;100363.81;4933017;29;20039;-87
2023/10/05 00:36:43;;;;;;;11.73;6.60;;;;;;;10.89;100.00;100357.81;4917422;29;20149;-87
2023/10/05 00:39:09;;;;;;;13.60;6.72;;;;;;;10.83;100.00;100358.03;4932921;29;20087;-88
2023/10/05 00:41:36;;;;;;;11.57;6.65;;;;;;;10.64;100.00;100327.44;4917319;29;20118;-87
2023/10/05 00:44:04;;;;;;;12.23;7.03;;;;;;;10.77;100.00;100353.03;4939530;28;20126;-87
2023/10/05 00:46:31;;;;;;;11.50;6.53;;;;;;;10.62;100.00;100323.16;4955428;28;20053;-87
2023/10/05 00:49:05;;;;;;;12.82;7.63;;;;;;;10.74;100.00;100356.59;4971411;28;20073;-87
2023/10/05 00:51:34;;;;;;;11.93;7.57;;;;;;;10.65;100.00;100349.97;4971521;28;20042;-87
2023/10/05 00:54:05;;;;;;;11.02;6.00;;;;;;;10.58;100.00;100347.66;4971432;28;20037;-87
2023/10/05 00:56:34;;;;;;;10.77;6.72;;;;;;;10.36;100.00;100305.88;4971337;28;20090;-87
2023/10/05 00:59:06;;;;;;;10.80;7.13;;;;;;;10.52;100.00;100343.50;4955342;28;20042;-88
2023/10/05 01:01:50;;;;;;;13.25;7.40;;;;;;;10.44;100.00;100338.56;4955124;28;20035;-87
2023/10/05 01:04:23;;;;;;;11.27;7.35;;;;;;;10.43;100.00;100347.28;4971059;28;20050;-88
2023/10/05 01:06:57;;;;;;;10.60;6.82;;;;;;;10.13;100.00;100315.31;4955157;28;20501;-88
2023/10/05 01:12:11;;;;;;;20.15;7.70;;;;;;;10.31;100.00;100350.31;5032429;28;20056;-87
2023/10/05 01:14:45;;;;;;;12.32;6.63;;;;;;;10.15;100.00;100336.91;5030995;28;20056;-87
2023/10/05 01:17:11;;;;;;;12.55;6.75;;;;;;;10.13;100.00;100332.69;5030816;28;20076;-87
2023/10/05 01:19:39;;;;;;;15.32;6.38;;;;;;;9.87;100.00;100290.16;5031044;28;20021;-87
2023/10/05 01:22:10;;;;;;;10.55;6.35;;;;;;;9.72;100.00;100281.09;5032079;28;20017;-87
2023/10/05 01:24:36;;;;;;;12.45;6.55;;;;;;;10.06;100.00;100337.22;5009830;28;20063;-87
2023/10/05 01:27:03;;;;;;;13.80;6.75;;;;;;;9.72;100.00;100283.72;4993185;28;20034;-87
2023/10/05 01:29:28;;;;;;;10.50;6.40;;;;;;;9.97;100.00;100327.97;4992999;28;20378;-87
2023/10/05 01:31:55;;;;;;;13.52;6.97;;;;;;;9.94;100.00;100317.69;5010018;28;20033;-87
2023/10/05 01:34:20;;;;;;;13.18;7.07;;;;;;;10.01;100.00;100331.34;4993279;28;20030;-87
2023/10/05 01:36:46;;;;;;;13.82;6.95;;;;;;;9.83;100.00;100300.72;5010161;28;20065;-87
2023/10/05 01:39:12;;;;;;;12.23;7.32;;;;;;;9.62;100.00;100266.72;4993194;28;20056;-87
2023/10/05 01:41:38;;;;;;;12.43;7.35;;;;;;;9.93;100.00;100317.72;4993227;28;20025;-87
2023/10/05 01:44:04;;;;;;;12.75;6.47;;;;;;;9.77;100.00;100303.53;4993312;28;20133;-87
2023/10/05 01:46:33;;;;;;;16.48;7.30;;;;;;;9.89;100.00;100316.97;4993414;28;20130;-86
2023/10/05 01:48:58;;;;;;;10.63;6.18;;;;;;;9.83;100.00;100316.34;5009971;28;20445;-88
2023/10/05 01:51:23;;;;;;;11.20;5.82;;;;;;;9.78;100.00;100302.66;5009931;28;20100;-87
2023/10/05 01:53:52;;;;;;;13.05;7.18;;;;;;;9.67;100.00;100295.16;4993259;28;20069;-87
2023/10/05 01:56:20;;;;;;;10.45;5.90;;;;;;;9.48;100.00;100266.28;4992846;28;20033;-87
2023/10/05 01:58:50;;;;;;;11.00;6.32;;;;;;;9.73;100.00;100310.56;5009639;28;20026;-87
2023/10/05 02:01:18;;;;;;;12.13;6.32;;;;;;;9.67;100.00;100310.78;4997036;28;20452;-88
2023/10/05 02:03:44;;;;;;;14.57;6.50;;;;;;;9.64;100.00;100314.31;5030580;28;20021;-87
2023/10/05 02:06:15;;;;;;;10.25;5.88;;;;;;;9.64;100.00;100311.72;5031753;28;20112;-87
2023/10/05 02:08:41;;;;;;;13.45;6.25;;;;;;;9.56;100.00;100303.31;5023992;28;20191;-87
2023/10/05 02:11:09;;;;;;;16.77;6.35;;;;;;;9.60;100.00;100319.66;5014090;28;20072;-87
2023/10/05 02:13:35;;;;;;;11.35;6.38;;;;;;;9.51;100.00;100305.22;5014208;28;20026;-87
2023/10/05 02:16:02;;;;;;;10.60;5.80;;;;;;;9.59;100.00;100312.78;5031902;28;20029;-87
2023/10/05 02:18:30;;;;;;;9.70;6.70;;;;;;;9.41;100.00;100285.63;5013838;28;20128;-87
2023/10/05 02:21:07;;;;;;;10.50;6.25;;;;;;;9.59;100.00;100313.63;5014240;28;20384;-87
2023/10/05 02:23:44;;;;;;;11.18;7.15;;;;;;;9.48;100.00;100303.56;5014208;28;20388;-87
2023/10/05 02:26:28;;;;;;;10.43;7.15;;;;;;;9.29;100.00;100276.44;5031384;28;20552;-87
2023/10/05 02:28:55;;;;;;;12.20;7.13;;;;;;;9.48;100.00;100306.19;5013960;28;20037;-87
2023/10/05 02:31:21;;;;;;;12.32;7.45;;;;;;;8.82;100.00;100205.16;5013594;28;20026;-87
2023/10/05 02:33:47;;;;;;;12.55;7.93;;;;;;;9.41;100.00;100309.84;5013749;28;20033;-87
2023/10/05 02:36:26;;;;;;;14.52;7.43;;;;;;;9.31;100.00;100312.78;5013669;28;20021;-87
2023/10/05 02:38:53;;;;;;;13.20;6.70;;;;;;;9.24;100.00;100301.75;5014191;28;20080;-87
2023/10/05 02:41:25;;;;;;;11.32;6.63;;;;;;;9.33;100.00;100317.03;5017419;28;20159;-87
2023/10/05 02:43:54;;;;;;;13.82;7.32;;;;;;;9.17;100.00;100293.25;5035102;28;20032;-87
2023/10/05 02:46:24;;;;;;;13.05;7.00;;;;;;;9.10;100.00;100289.16;5017035;28;20467;-87
2023/10/05 02:48:49;;;;;;;12.63;6.75;;;;;;;8.90;100.00;100261.19;5017647;28;20025;-87
2023/10/05 02:51:18;;;;;;;14.38;7.63;;;;;;;9.07;100.00;100296.19;5016993;28;20473;-87
2023/10/05 02:53:45;;;;;;;12.18;7.15;;;;;;;9.28;100.00;100328.50;5035051;28;20029;-87
2023/10/05 02:56:27;;;;;;;11.05;7.20;;;;;;;8.93;100.00;100284.47;5016988;28;20025;-87
2023/10/05 02:58:55;;;;;;;13.68;7.63;;;;;;;9.10;100.00;100298.69;5035101;28;20029;-87
2023/10/05 03:01:22;;;;;;;18.05;10.00;;;;;;;9.09;100.00;100299.59;5017213;28;20610;-87
2023/10/05 03:03:48;;;;;;;16.70;10.30;;;;;;;8.98;100.00;100281.75;5017005;28;20036;-87
2023/10/05 03:06:15;;;;;;;19.52;11.13;;;;;;;9.14;100.00;100305.50;5016589;28;20025;-87
2023/10/05 03:08:42;;;;;;;20.45;11.00;;;;;;;9.06;100.00;100291.88;5016865;28;20053;-87
2023/10/05 03:11:08;;;;;;;19.23;11.32;;;;;;;8.82;100.00;100251.91;5016711;28;20044;-87
2023/10/05 03:13:38;;;;;;;21.83;12.80;;;;;;;8.91;100.00;100272.41;5034134;28;20021;-87
2023/10/05 03:16:10;;;;;;;20.58;13.60;;;;;;;8.91;100.00;100267.22;5016494;28;20026;-87
2023/10/05 03:18:40;;;;;;;;;;;;;;;8.96;100.00;100273.13;5034832;28;20030;-87
2023/10/05 03:21:13;;;;;;;17.20;9.60;;;;;;;8.75;100.00;100239.09;4992457;28;20062;-87
2023/10/05 03:23:41;;;;;;;15.35;8.88;;;;;;;8.83;100.00;100256.22;4976248;28;20149;-87
2023/10/05 03:26:10;;;;;;;17.77;9.75;;;;;;;8.92;100.00;100263.72;4976253;28;20141;-87
2023/10/05 03:28:37;;;;;;;14.60;8.02;;;;;;;8.90;100.00;100261.19;4976151;28;20030;-87
2023/10/05 03:31:12;;;;;;;14.07;7.93;;;;;;;8.99;100.00;100276.50;4976272;28;20118;-87
2023/10/05 03:33:39;;;;;;;12.57;7.97;;;;;;;8.79;100.00;100233.81;4976272;28;20157;-87
2023/10/05 03:36:13;;;;;;;13.07;7.97;;;;;;;8.89;100.00;100269.88;4976100;28;20038;-87
2023/10/05 03:38:39;;;;;;;12.55;7.25;;;;;;;8.84;100.00;100258.75;4976227;28;20037;-87
2023/10/05 03:41:15;;;;;;;11.02;7.63;;;;;;;8.48;100.00;100185.41;4976173;28;20050;-87
2023/10/05 03:43:43;;;;;;;10.70;7.30;;;;;;;8.77;100.00;100241.66;4975926;28;20031;-87
2023/10/05 03:46:09;;;;;;;13.80;7.53;;;;;;;8.71;100.00;100231.44;4975742;28;20042;-87
2023/10/05 03:48:38;;;;;;;13.18;7.00;;;;;;;8.57;100.00;100202.44;4975547;28;20061;-87
2023/10/05 03:51:15;;;;;;;11.60;7.35;;;;;;;8.72;100.00;100243.53;4977538;28;20049;-87
2023/10/05 03:53:42;;;;;;;13.68;8.10;;;;;;;8.82;100.00;100244.13;5015796;28;20025;-87
2023/10/05 03:56:07;;;;;;;11.32;7.05;;;;;;;8.73;100.00;100217.53;5015726;28;20472;-87
2023/10/05 03:58:34;;;;;;;10.90;7.05;;;;;;;8.62;100.00;100187.56;5015472;28;20036;-88
2023/10/05 04:00:59;;;;;;;11.98;7.32;;;;;;;8.92;100.00;100223.00;5033409;28;20064;-87
2023/10/05 04:03:25;;;;;;;12.48;7.90;;;;;;;8.84;100.00;100208.56;5015336;28;20056;-87
2023/10/05 04:05:51;;;;;;;13.35;8.40;;;;;;;8.93;100.00;100221.25;5015665;28;20040;-87
2023/10/05 04:08:17;;;;;;;12.63;7.15;;;;;;;8.99;100.00;100231.47;5015432;28;20037;-88
2023/10/05 04:10:49;;;;;;;12.45;7.15;;;;;;;8.80;100.00;100202.59;5015752;28;20030;-87
2023/10/05 04:13:20;;;;;;;14.55;8.38;;;;;;;8.79;100.00;100195.72;5033151;28;20376;-87
2023/10/05 04:15:46;;;;;;;12.13;7.80;;;;;;;8.86;100.00;100201.56;5015621;28;20484;-87
2023/10/05 04:18:14;;;;;;;12.38;7.35;;;;;;;8.86;100.00;100194.63;5033352;28;20029;-87
2023/10/05 04:20:50;;;;;;;10.48;6.90;;;;;;;9.07;100.00;100224.28;5015473;28;20037;-87
2023/10/05 04:23:20;;;;;;;13.05;6.80;;;;;;;8.97;100.00;100200.34;5015266;28;20025;-87
2023/10/05 04:25:47;;;;;;;11.32;7.03;;;;;;;9.07;100.00;100220.84;5015398;28;20029;-87
2023/10/05 04:28:13;;;;;;;14.23;6.93;;;;;;;8.98;100.00;100203.78;5015142;28;20423;-87
2023/10/05 04:30:38;;;;;;;12.75;7.55;;;;;;;8.98;100.00;100202.03;5034247;28;20022;-87
2023/10/05 04:33:04;;;;;;;15.05;7.43;;;;;;;9.05;100.00;100204.44;5033048;28;20036;-87
2023/10/05 04:35:38;;;;;;;13.77;7.68;;;;;;;8.99;100.00;100187.31;5015046;28;20067;-87
2023/10/05 04:38:04;;;;;;;13.00;8.25;;;;;;;9.11;100.00;100205.09;5015225;28;20389;-88
2023/10/05 04:40:33;;;;;;;12.75;8.55;;;;;;;8.85;100.00;100174.75;5032657;28;20036;-87
2023/10/05 04:43:04;;;;;;;10.07;7.07;;;;;;;9.02;100.00;100195.00;5031610;28;20424;-88
2023/10/05 04:45:30;;;;;;;14.02;8.43;;;;;;;8.97;100.00;100200.34;5015062;28;20022;-88
2023/10/05 04:47:58;;;;;;;11.38;7.47;;;;;;;8.89;100.00;100183.28;5015153;28;20087;-87
2023/10/05 04:50:24;;;;;;;13.63;7.35;;;;;;;8.79;100.00;100163.69;5031254;28;20079;-87
2023/10/05 04:52:50;;;;;;;12.88;7.15;;;;;;;8.75;100.00;100158.59;5014954;28;20540;-88
2023/10/05 04:55:23;;;;;;;14.23;8.18;;;;;;;8.75;100.00;100165.53;5014748;28;20032;-88
2023/10/05 04:57:55;;;;;;;16.08;7.63;;;;;;;8.93;100.00;100197.88;5032768;28;20079;-87
2023/10/05 05:00:48;;;;;;;13.60;7.65;;;;;;;8.95;100.00;100196.09;5014633;28;20033;-87
2023/10/05 05:03:32;;;;;;;14.18;6.82;;;;;;;8.86;100.00;100189.44;5014597;28;20021;-87
2023/10/05 05:08:26;;;;;;;13.25;8.07;;;;;;;8.65;100.00;100167.56;5039583;28;20073;-87
2023/10/05 05:10:52;;;;;;;11.40;6.57;;;;;;;8.81;100.00;100200.88;5034266;28;20071;-88
2023/10/05 05:13:18;;;;;;;11.30;7.10;;;;;;;8.97;100.00;100217.66;5034308;28;20463;-87
2023/10/05 05:15:43;;;;;;;14.95;7.85;;;;;;;8.92;100.00;100203.97;5034270;28;20416;-87
2023/10/05 05:18:15;;;;;;;12.07;7.20;;;;;;;8.82;100.00;100172.25;5034074;28;20025;-87
2023/10/05 05:20:41;;;;;;;;;;;;;;;9.09;100.00;100219.03;5034598;28;20365;-87
2023/10/05 05:23:07;;;;;;;15.40;6.97;;;;;;;8.98;100.00;100177.81;5034313;28;19919;-87
2023/10/05 05:25:32;;;;;;;10.18;6.70;;;;;;;9.18;100.00;100208.34;5033952;28;20033;-87
2023/10/05 05:28:01;;;;;;;14.23;7.03;;;;;;;9.19;100.00;100205.72;5009684;28;20038;-87
2023/10/05 05:30:26;;;;;;;16.27;7.38;;;;;;;9.24;100.00;100198.63;4993084;28;20034;-87
2023/10/05 05:32:56;;;;;;;11.18;6.65;;;;;;;9.23;100.00;100194.31;5009754;28;20141;-87
2023/10/05 05:35:22;;;;;;;12.73;7.40;;;;;;;9.33;100.00;100191.41;4993117;28;20041;-87
2023/10/05 05:37:48;;;;;;;12.60;7.32;;;;;;;9.22;100.00;100169.22;5009749;28;20057;-87
2023/10/05 05:40:14;;;;;;;13.35;7.88;;;;;;;9.37;100.00;100182.63;4993385;28;20040;-87
2023/10/05 05:42:40;;;;;;;11.80;7.88;;;;;;;9.47;100.00;100195.25;4992926;28;20073;-87
2023/10/05 05:45:15;;;;;;;13.40;7.55;;;;;;;9.55;100.00;100187.19;4993241;28;20443;-87
2023/10/05 05:47:41;;;;;;;11.85;6.97;;;;;;;9.41;100.00;100151.25;4992991;28;20407;-87
2023/10/05 05:50:08;;;;;;;9.98;6.60;;;;;;;9.64;100.00;100170.44;4993189;28;20033;-87
2023/10/05 05:52:34;;;;;;;12.60;7.10;;;;;;;9.86;100.00;100193.94;4992962;28;20386;-87
2023/10/05 05:55:09;;;;;;;14.02;7.22;;;;;;;9.79;100.00;100175.09;5009573;28;20029;-87
2023/10/05 05:57:35;;;;;;;14.13;8.18;;;;;;;9.88;100.00;100187.78;5009430;28;20026;-87
2023/10/05 06:00:10;;;;;;;10.63;6.47;;;;;;;9.88;100.00;100176.53;5030983;28;20113;-88
2023/10/05 06:02:39;;;;;;;10.93;6.20;;;;;;;9.89;100.00;100179.06;5051776;28;20021;-87
2023/10/05 06:05:08;;;;;;;12.90;7.10;;;;;;;9.85;100.00;100166.22;5033946;28;20111;-87
2023/10/05 06:07:33;;;;;;;12.80;7.20;;;;;;;9.94;100.00;100185.00;5032297;28;20027;-87
2023/10/05 06:09:58;;;;;;;12.18;6.65;;;;;;;9.87;100.00;100169.63;5033602;28;20032;-87
2023/10/05 06:12:24;;;;;;;11.55;7.93;;;;;;;9.95;100.00;100180.63;5033277;28;20124;-87
2023/10/05 06:14:49;;;;;;;10.63;6.72;;;;;;;10.03;100.00;100177.72;5035810;28;20032;-87
2023/10/05 06:17:14;;;;;;;11.40;6.93;;;;;;;10.11;100.00;100184.38;5037640;28;20512;-86
2023/10/05 06:19:40;;;;;;;11.73;7.13;;;;;;;10.24;100.00;100176.97;5055102;28;20389;-87
2023/10/05 06:22:06;;;;;;;12.57;8.02;;;;;;;10.45;100.00;100176.22;5037472;28;20495;-87
2023/10/05 06:24:34;;;;;;;12.88;6.95;;;;;;;10.71;100.00;100182.19;5037252;28;20045;-87
2023/10/05 06:27:00;;;;;;;10.15;7.00;;;;;;;10.65;100.00;100127.69;5037324;28;20033;-87
2023/10/05 06:29:25;;;;;;;11.88;7.50;;;;;;;11.08;100.00;100176.38;5037132;28;20033;-87
2023/10/05 06:31:51;;;;;;;12.15;7.53;;;;;;;11.18;100.00;100164.66;5037412;28;20112;-88
2023/10/05 06:34:16;;;;;;;15.68;7.70;;;;;;;11.42;100.00;100180.22;5037263;28;20017;-87
2023/10/05 06:36:42;;;;;;;12.07;6.82;;;;;;;11.62;100.00;100182.78;5036921;28;20032;-88
2023/10/05 06:39:14;;;;;;;9.52;6.43;;;;;;;11.67;100.00;100151.28;5037083;28;20072;-88
2023/10/05 06:41:40;;;;;;;11.63;6.75;;;;;;;11.88;100.00;100180.88;5036694;28;20701;-88
2023/10/05 06:44:07;;;;;;;10.00;6.93;;;;;;;11.99;100.00;100171.66;5037155;28;20029;-88
2023/10/05 06:46:33;;;;;;;11.77;6.55;;;;;;;12.13;100.00;100175.41;5036701;28;20033;-88
2023/10/05 06:48:58;;;;;;;14.73;7.13;;;;;;;12.12;100.00;100169.34;5037073;28;20036;-88
2023/10/05 06:51:26;;;;;;;10.75;6.45;;;;;;;12.17;100.00;100169.13;5036848;28;20048;-88
2023/10/05 06:53:52;;;;;;;10.50;6.50;;;;;;;12.21;100.00;100168.94;5036768;28;20032;-88
2023/10/05 06:56:18;;;;;;;11.40;6.30;;;;;;;12.12;100.00;100137.16;5036690;28;20029;-87
2023/10/05 06:58:44;;;;;;;16.10;6.85;;;;;;;12.46;100.00;100184.34;5054553;28;20060;-87
2023/10/05 07:01:09;;;;;;;9.82;6.85;;;;;;;12.49;100.00;100152.00;5036818;28;20071;-87
2023/10/05 07:03:36;;;;;;;15.10;7.07;;;;;;;12.71;100.00;100138.78;5053080;28;20071;-87
2023/10/05 07:06:04;;;;;;;12.82;6.80;;;;;;;13.06;100.00;100157.13;5036594;28;20052;-87
2023/10/05 07:08:30;;;;;;;10.27;5.95;;;;;;;13.38;100.00;100166.06;5036239;28;20049;-87
2023/10/05 07:10:55;;;;;;;13.52;6.43;;;;;;;13.67;100.00;100165.44;5036400;28;20028;-87
2023/10/05 07:13:22;;;;;;;13.07;7.47;;;;;;;14.00;100.00;100166.41;5036717;28;20025;-87
2023/10/05 07:15:48;;;;;;;13.23;6.43;;;;;;;14.32;98.68;100164.66;5036403;28;20025;-88
2023/10/05 07:18:15;;;;;;;7.43;5.47;;;;;;;14.70;97.93;100163.44;5054188;28;20036;-87
2023/10/05 07:20:41;;;;;;;9.75;6.28;;;;;;;14.86;95.91;100157.34;5052757;28;20029;-87
2023/10/05 07:23:07;;;;;;;13.32;6.32;;;;;;;14.84;94.91;100161.84;5054185;28;20036;-87
2023/10/05 07:25:33;;;;;;;9.85;6.00;;;;;;;14.74;94.35;100164.13;5035820;28;20028;-87
2023/10/05 07:27:59;;;;;;;10.38;6.32;;;;;;;14.73;94.71;100165.06;5036292;28;20021;-87
2023/10/05 07:30:25;;;;;;;11.10;6.55;;;;;;;14.68;95.23;100178.44;5036267;28;20052;-87
2023/10/05 07:32:50;;;;;;;10.57;6.18;;;;;;;14.42;95.44;100137.91;5035883;28;20051;-87
2023/10/05 07:35:15;;;;;;;11.80;6.22;;;;;;;14.59;96.01;100173.69;5053949;28;20017;-87
2023/10/05 07:37:41;;;;;;;10.57;6.32;;;;;;;14.47;96.28;100167.31;5035603;28;20311;-87
2023/10/05 07:40:13;;;;;;;10.80;6.07;;;;;;;14.43;96.98;100175.44;5035815;28;20074;-88
2023/10/05 07:42:38;;;;;;;9.55;5.70;;;;;;;14.27;97.20;100143.97;5035814;28;20074;-87
2023/10/05 07:45:07;;;;;;;9.13;5.63;;;;;;;14.27;97.76;100141.34;5053926;28;20021;-87
2023/10/05 07:47:33;;;;;;;11.20;5.60;;;;;;;14.50;98.03;100176.81;5035568;28;20028;-87
2023/10/05 07:49:59;;;;;;;10.00;6.13;;;;;;;14.65;97.98;100178.59;5036027;28;20083;-87
2023/10/05 07:52:24;;;;;;;9.18;5.85;;;;;;;14.70;97.50;100166.06;5053568;28;20411;-87
2023/10/05 07:54:51;;;;;;;9.93;5.32;;;;;;;14.79;97.11;100166.50;5035532;28;20021;-88
2023/10/05 07:57:17;;;;;;;7.97;5.65;;;;;;;14.88;96.79;100173.88;5035746;28;20025;-87
2023/10/05 07:59:42;;;;;;;6.85;4.72;;;;;;;14.83;96.68;100139.16;5035495;28;20029;-87
2023/10/05 08:02:10;;;;;;;11.57;5.50;;;;;;;15.07;96.23;100171.88;5053751;28;20036;-87
2023/10/05 08:04:36;;;;;;;9.43;5.32;;;;;;;15.01;95.70;100158.28;5053114;28;20025;-87
2023/10/05 08:07:02;;;;;;;9.13;5.35;;;;;;;15.27;95.61;100162.03;5035363;28;20025;-87
2023/10/05 08:09:28;;;;;;;10.88;5.20;;;;;;;15.48;94.92;100173.91;5035375;28;20055;-87
2023/10/05 08:11:56;;;;;;;9.55;5.70;;;;;;;15.43;93.93;100142.69;5035274;28;20025;-87
2023/10/05 08:14:22;;;;;;;9.80;5.13;;;;;;;15.76;93.92;100161.78;5035348;28;20021;-87
2023/10/05 08:16:50;;;;;;;7.95;4.47;;;;;;;15.97;93.56;100155.25;5053281;28;20040;-87
2023/10/05 08:19:24;;;;;;;10.07;4.65;;;;;;;16.05;91.98;100128.50;5035069;28;20056;-87
2023/10/05 08:21:53;;;;;;;10.38;6.00;;;;;;;16.35;89.81;100157.28;5035137;28;20025;-87
2023/10/05 08:24:20;;;;;;;12.20;6.28;;;;;;;16.54;89.96;100157.84;5035192;28;20178;-87
2023/10/05 08:26:48;;;;;;;7.45;4.90;;;;;;;16.57;88.20;100155.00;5034808;28;20499;-87
2023/10/05 08:29:14;;;;;;;8.98;4.68;;;;;;;16.68;87.89;100156.94;5052942;28;20037;-87
2023/10/05 08:31:39;;;;;;;7.80;4.55;;;;;;;16.80;87.93;100164.09;5034726;28;20029;-87
2023/10/05 08:34:06;;;;;;;10.80;5.25;;;;;;;16.88;87.33;100153.06;5034999;28;20028;-87
2023/10/05 08:36:33;;;;;;;9.88;5.53;;;;;;;16.85;87.12;100140.94;5033521;28;20052;-85
2023/10/05 08:39:00;;;;;;;8.82;4.97;;;;;;;17.07;86.15;100164.09;5052809;28;20029;-86
2023/10/05 08:41:32;;;;;;;12.23;5.90;;;;;;;17.14;85.78;100170.63;5052765;28;20025;-86
2023/10/05 08:44:06;;;;;;;10.48;5.55;;;;;;;17.16;85.20;100162.66;5052721;28;20037;-86
2023/10/05 08:46:40;;;;;;;10.77;4.85;;;;;;;17.20;84.79;100161.50;5052316;28;20108;-86
2023/10/05 08:49:07;;;;;;;12.90;5.97;;;;;;;17.15;84.48;100138.13;5052522;28;20384;-86
2023/10/05 08:51:35;;;;;;;10.43;5.32;;;;;;;17.38;83.86;100156.81;5051394;28;20028;-87
2023/10/05 08:54:02;;;;;;;13.90;5.63;;;;;;;17.56;83.67;100163.47;5052437;28;20083;-87
2023/10/05 08:56:31;;;;;;;8.88;5.50;;;;;;;17.57;83.98;100146.75;5052060;28;20028;-87
2023/10/05 08:58:59;;;;;;;8.93;5.25;;;;;;;17.66;84.07;100155.81;5022580;28;20025;-87
2023/10/05 09:01:33;;;;;;;11.40;5.43;;;;;;;17.63;82.99;100141.03;5030393;28;20480;-87
2023/10/05 09:04:23;;;;;;;10.10;5.63;;;;;;;17.70;81.04;100160.75;5045354;28;20029;-87
2023/10/05 09:06:52;;;;;;;11.25;5.47;;;;;;;17.70;81.17;100173.09;5031406;28;20024;-87
2023/10/05 09:09:38;;;;;;;10.20;5.32;;;;;;;17.56;81.16;100168.72;5025922;28;20438;-87
2023/10/05 09:15:27;;;;;;;10.50;5.53;;;;;;;17.45;81.58;100168.63;5052233;28;20036;-87
2023/10/05 09:17:58;;;;;;;9.05;5.25;;;;;;;17.41;81.68;100170.63;5033096;28;20028;-87
2023/10/05 09:20:32;;;;;;;10.60;6.10;;;;;;;17.24;82.01;100143.72;5051479;28;20079;-86
2023/10/05 09:23:06;;;;;;;10.38;5.28;;;;;;;17.06;82.36;100119.44;5033843;28;20021;-86
2023/10/05 09:25:36;;;;;;;10.75;5.53;;;;;;;17.11;82.79;100155.06;5010200;28;20463;-87
2023/10/05 09:28:16;;;;;;;12.90;6.00;;;;;;;16.83;83.24;100137.59;4993500;28;20061;-87
2023/10/05 09:31:07;;;;;;;10.35;6.10;;;;;;;16.88;82.88;100153.06;4993137;28;20125;-87
2023/10/05 09:33:34;;;;;;;9.88;5.43;;;;;;;16.67;83.47;100137.69;4993198;28;20030;-87
2023/10/05 09:36:16;;;;;;;11.93;6.05;;;;;;;16.90;83.52;100177.50;4993473;28;20054;-87
2023/10/05 09:38:45;;;;;;;11.30;5.85;;;;;;;16.86;83.25;100163.72;5009678;28;20490;-86
2023/10/05 09:41:17;;;;;;;8.05;4.88;;;;;;;16.91;82.38;100153.72;5009989;28;20480;-87
2023/10/05 09:43:44;;;;;;;9.90;5.63;;;;;;;16.81;82.14;100146.50;4993407;28;20412;-85
2023/10/05 09:46:10;;;;;;;11.13;5.63;;;;;;;16.73;82.67;100141.78;4994044;28;20042;-86
2023/10/05 09:48:39;;;;;;;10.63;5.25;;;;;;;16.66;82.28;100140.44;4993569;28;20026;-86
2023/10/05 09:51:10;;;;;;;10.75;5.25;;;;;;;16.68;82.88;100135.91;4997891;28;20041;-86
2023/10/05 09:53:43;;;;;;;8.47;5.17;;;;;;;16.46;83.74;100113.59;4997318;28;20104;-86
2023/10/05 09:56:11;;;;;;;13.25;5.88;;;;;;;16.79;83.86;100162.41;5028814;28;20311;-86
2023/10/05 09:58:39;;;;;;;9.00;5.03;;;;;;;16.83;83.44;100152.53;5055566;28;20021;-87
2023/10/05 10:01:12;;;;;;;11.27;5.63;;;;;;;16.96;84.00;100156.06;5055854;28;20025;-86
2023/10/05 10:03:45;;;;;;;12.02;5.70;;;;;;;17.06;82.79;100158.91;5055306;28;20033;-86
2023/10/05 10:06:12;;;;;;;8.55;4.97;;;;;;;17.14;82.77;100160.09;5055455;28;20043;-86
2023/10/05 10:08:51;;;;;;;9.13;5.30;;;;;;;17.18;82.49;100160.75;5037345;28;20065;-87
2023/10/05 10:11:23;;;;;;;10.40;5.25;;;;;;;17.28;83.05;100163.66;5055599;28;20018;-87
2023/10/05 10:14:03;;;;;;;11.52;5.43;;;;;;;17.30;82.61;100148.56;5037211;28;20040;-86
2023/10/05 10:16:32;;;;;;;9.68;4.80;;;;;;;17.37;82.60;100132.28;5037735;28;20021;-87
2023/10/05 10:19:06;;;;;;;10.52;4.18;;;;;;;17.35;81.50;100105.19;5037270;28;20366;-87
2023/10/05 10:21:46;;;;;;;8.82;4.70;;;;;;;17.53;80.84;100144.38;5055442;28;20047;-87
2023/10/05 10:24:17;;;;;;;9.57;4.80;;;;;;;17.41;80.78;100102.16;5037448;28;20032;-87
2023/10/05 10:27:11;;;;;;;10.68;4.30;;;;;;;17.57;79.95;100127.44;5036996;28;20017;-86
2023/10/05 10:29:45;;;;;;;7.60;4.43;;;;;;;17.66;80.79;100125.03;5037164;28;20031;-85
2023/10/05 10:32:31;;;;;;;12.13;4.30;;;;;;;17.44;77.18;100087.91;5037283;28;20025;-86
2023/10/05 10:34:56;;;;;;;11.45;3.70;;;;;;;17.50;76.16;100115.66;5054785;28;20029;-86
2023/10/05 10:37:36;;;;;;;8.13;3.97;;;;;;;17.67;76.93;100126.72;5037142;28;20021;-87
2023/10/05 10:40:13;;;;;;;11.32;4.03;;;;;;;17.63;76.62;100111.22;5055050;28;20125;-87
2023/10/05 10:43:06;;;;;;;10.45;4.50;;;;;;;17.67;76.97;100124.06;5036564;28;20021;-86
2023/10/05 10:45:41;;;;;;;8.48;3.30;;;;;;;17.63;76.27;100111.22;5055060;28;20044;-86
2023/10/05 10:51:10;;;;;;;12.07;4.88;;;;;;;17.60;76.22;100099.09;4973397;28;20051;-86
2023/10/05 10:53:39;;;;;;;14.52;4.30;;;;;;;17.65;75.84;100093.50;4973715;28;20031;-86
2023/10/05 10:56:10;;;;;;;9.93;3.70;;;;;;;17.58;76.38;100079.09;4957218;28;20053;-86
2023/10/05 10:58:36;;;;;;;7.80;3.55;;;;;;;17.59;75.78;100073.72;4950612;28;20234;-85
2023/10/05 11:01:03;;;;;;;7.80;3.70;;;;;;;17.76;75.01;100093.66;4944516;28;20728;-86
2023/10/05 11:03:36;;;;;;;6.55;3.35;;;;;;;17.70;74.56;100079.09;4963137;28;20034;-86
2023/10/05 11:06:04;;;;;;;6.60;2.90;;;;;;;17.92;75.10;100096.06;4962869;28;20030;-86
2023/10/05 11:08:33;;;;;;;5.70;3.63;;;;;;;17.53;73.96;100025.88;4950755;28;20055;-86
2023/10/05 11:11:06;;;;;;;6.32;3.22;;;;;;;17.80;73.70;100063.50;4959141;28;20031;-86
2023/10/05 11:13:33;;;;;;;6.30;3.65;;;;;;;17.93;74.64;100071.41;4944528;29;20055;-87
2023/10/05 11:16:03;;;;;;;6.97;3.67;;;;;;;18.06;73.85;100093.28;4941754;29;20043;-87
2023/10/05 11:18:34;;;;;;;6.85;3.70;;;;;;;18.14;72.79;100095.41;4943111;28;20373;-86
2023/10/05 11:21:13;;;;;;;6.28;3.50;;;;;;;18.09;73.01;100087.81;4944757;28;20047;-87
2023/10/05 11:23:43;;;;;;;6.50;3.78;;;;;;;18.05;73.14;100067.91;4944193;29;20032;-86
2023/10/05 11:26:17;;;;;;;8.82;4.20;;;;;;;17.96;73.31;100050.09;4941410;29;20042;-87
2023/10/05 11:28:56;;;;;;;11.40;4.20;;;;;;;18.02;73.06;100057.56;5020789;28;20548;-87
2023/10/05 11:31:24;;;;;;;5.20;2.80;;;;;;;18.09;72.80;100063.25;5049798;28;20060;-87
2023/10/05 11:33:53;;;;;;;5.35;3.38;;;;;;;18.23;73.56;100086.81;5034062;28;20028;-86
2023/10/05 11:36:22;;;;;;;9.48;3.35;;;;;;;18.31;73.31;100091.56;5052260;28;20032;-87
2023/10/05 11:39:00;;;;;;;8.40;4.18;;;;;;;18.39;73.03;100099.75;5023671;28;20033;-87
2023/10/05 11:41:29;;;;;;;10.57;3.10;;;;;;;18.13;72.88;100048.91;5052440;28;20029;-87
2023/10/05 11:43:55;;;;;;;6.15;3.28;;;;;;;17.92;73.17;100014.38;5035410;28;20032;-87